Sisquoc, California
Current Conditions -  °F | °C
As of 8:51 PM on Saturday 22 Nov 2014 (Local Time) from KSMX Reporting Station
Clear Clear  
Wind Chill: 60°   Ceiling: Unl
Heat Index: 60°   Visibility: 10mi
Dew Point: 57°   Wind: 8mph
Humidity: 90%   Direction: 300°WNW
Pressure: 30.1"   Gusts: NA
Location:  34.9452°N, 120.389°W
Report Text: KSMX 230451Z AUTO 30007KT 10SM CLR 16/14 A3010 RMK AO2 SLP195 T01560139
Loading
Personal Weather Stations






























Interactive Weather Map New forecast layout! Learn more

10-Day Weather Forecast

Advertisements
Track Severe Weather on mobile